Pagrindinis puslapis
METAR-TAF:

METAR-TAF

Oro uostai :

Port Morsbis, Papua Naujoji Gvinėja

platuma: 09-26S, ilguma: 147-13E, Aukštis: 38 m

Dabartinis oras

Ataskaita buvo paskelbta 40 minutes, ne 03:00 UTC
Vėjas 10 kt iš Pietų su gūsio iki 20 kt
Temperatūra 31°C
Drėgmė 75%
Slėgis 1011 hPa
Matomumas 10 km arba daugiau
Mažai debesys ne aukštis 3000 ft
Išsisklaidę debesys ne aukštis 5000 ft

METAR: AYPY 290300Z 17010G20KT 9999 FEW030 SCT050 31/26 Q1011

Laikas: 13:40 (03:40 UTC)

Prognozė

Ataskaita buvo paskelbta 3 valandos ir 6 minutes, ne 00:34 UTC
Prognozė galioja nuo 29 metu 00 UTC su 29 metu 24 UTC
Vėjas 10 kt iš Pietų/Pietryčių
Matomumas 10 km arba daugiau
Su prošvaistėmis ne aukštis 1800 ft
Nuo 29 metu 0600 UTC
Vėjas 16 kt iš Pietų/Pietryčių
Matomumas: 1011 m
Su prošvaistėmis ne aukštis 1700 ft
dulksna

TAF: AYPY 290034Z 2900/2924 15010KT 9999 BKN018 FM290600 16016KT 9999 -DZ BKN017 T 30 31 29 27 Q 1013 1012 12010 1011

Orai ataskaitas ir orų prognozės (METAR, TAF).

turimą stotys yra geltonos ir raudonos taškus žemėlapyje.

Perkelti pele per norėdami pamatyti stoties vardą.

Tada spustelėkite, norėdami matyti oro stebėjimo ir prognozės.

Norėdami pakeisti žemėlapį: spustelėkite ant žalios mygtukų su juodo kryžiaus žemyn,; žalią mygtuką su brūkšneliu, jei norite nutolinti; arba žalių rodyklių gretimoms žemėlapius.


METAR-TAF: